Time;durP1;ratioP1;P1;durP2;ratioP2;P2;SDS_P1;SDS_P2;PMS_P1;PMS_P2;Temp;Humidity;BMP_temperature;BMP_pressure;BME280_temperature;BME280_humidity;BME280_pressure;Samples;Min_cycle;Max_cycle;Signal;HPM_P1;HPM_P2
2020/12/04 00:01:04;;;;;;;;;;;;;;;0.14;77.86;96931.39;1688490;83;24743;-84
2020/12/04 00:03:55;;;;;;;;;;;;;;;-0.03;77.91;96930.53;1695456;83;20523;-84
2020/12/04 00:06:41;;;;;;;;;;;;;;;-0.10;77.91;96928.34;1690784;83;25189;-84
2020/12/04 00:09:32;;;;;;;;;;;;;;;-0.10;77.92;96926.61;1693571;83;21379;-84
2020/12/04 00:12:18;;;;;;;;;;;;;;;0.01;77.94;96929.91;1692194;83;26497;-84
2020/12/04 00:15:04;;;;;;;;;;;;;;;0.04;77.96;96934.08;1691047;83;24626;-84
2020/12/04 00:17:50;;;;;;;;;;;;;;;0.07;77.99;96929.59;1694488;83;20267;-84
2020/12/04 00:20:36;;;;;;;;;;;;;;;0.10;78.01;96924.30;1686760;83;25131;-84
2020/12/04 00:23:22;;;;;;;;;;;;;;;0.11;78.03;96918.70;1666723;85;23146;-85
2020/12/04 00:26:09;;;;;;;;;;;;;;;0.21;78.05;96922.00;1628614;87;25971;-85
2020/12/04 00:28:55;;;;;;;;;;;;;;;0.36;78.07;96913.91;1688875;83;24624;-85
2020/12/04 00:31:41;;;;;;;;;;;;;;;0.48;78.12;96913.72;1685442;83;20332;-85
2020/12/04 00:34:27;;;;;;;;;;;;;;;0.67;78.17;96916.48;1669200;84;25942;-86
2020/12/04 00:37:13;;;;;;;;;;;;;;;0.78;78.24;96915.89;1653448;84;23079;-85
2020/12/04 00:40:00;;;;;;;;;;;;;;;0.87;78.27;96908.13;1656110;84;27040;-86
2020/12/04 00:42:46;;;;;;;;;;;;;;;0.91;78.32;96904.46;1656103;86;24853;-85
2020/12/04 00:45:34;;;;;;;;;;;;;;;0.89;78.35;96899.84;1656080;85;32717;-86
2020/12/04 00:48:20;;;;;;;;;;;;;;;0.81;78.41;96910.59;1680940;84;25143;-85
2020/12/04 00:51:12;;;;;;;;;;;;;;;0.74;78.41;96897.22;1684773;84;22247;-85
2020/12/04 00:53:58;;;;;;;;;;;;;;;0.66;78.41;96901.11;1685358;84;27123;-85
2020/12/04 00:56:44;;;;;;;;;;;;;;;0.60;78.42;96898.41;1686460;84;25484;-85
2020/12/04 00:59:31;;;;;;;;;;;;;;;0.59;78.43;96895.49;1683278;84;20519;-85
2020/12/04 01:02:16;;;;;;;;;;;;;;;0.56;78.41;96894.81;1685227;84;25447;-85
2020/12/04 01:05:02;;;;;;;;;;;;;;;0.61;78.40;96906.52;1674386;84;22216;-85
2020/12/04 01:07:48;;;;;;;;;;;;;;;0.83;78.42;96915.17;1670534;84;27035;-86
2020/12/04 01:10:34;;;;;;;;;;;;;;;1.03;78.44;96914.08;1672434;84;24635;-85
2020/12/04 01:13:22;;;;;;;;;;;;;;;1.16;78.48;96913.74;1670551;84;20265;-85
2020/12/04 01:16:08;;;;;;;;;;;;;;;1.19;78.55;96904.12;1674405;84;25204;-85
2020/12/04 01:18:54;;;;;;;;;;;;;;;1.05;78.58;96896.78;1675570;84;22146;-85
2020/12/04 01:21:42;;;;;;;;;;;;;;;0.91;78.60;96900.14;1677736;84;27258;-85
2020/12/04 01:24:29;;;;;;;;;;;;;;;0.92;78.59;96895.83;1680292;84;25580;-85
2020/12/04 01:27:16;;;;;;;;;;;;;;;0.89;78.58;96891.66;1657407;86;20655;-85
2020/12/04 01:30:02;;;;;;;;;;;;;;;1.07;78.58;96879.50;1682261;84;26059;-85
2020/12/04 01:32:48;;;;;;;;;;;;;;;1.18;78.59;96872.82;1688644;84;22068;-86
2020/12/04 01:35:34;;;;;;;;;;;;;;;1.21;78.62;96865.36;1683372;84;26147;-86
2020/12/04 01:38:23;;;;;;;;;;;;;;;1.21;78.68;96854.59;1678349;84;24602;-86
2020/12/04 01:41:09;;;;;;;;;;;;;;;1.20;78.68;96849.55;1682409;84;20335;-86
2020/12/04 01:43:57;;;;;;;;;;;;;;;1.21;78.70;96830.13;1678742;84;25092;-86
2020/12/04 01:46:44;;;;;;;;;;;;;;;1.25;78.71;96826.92;1684970;84;22154;-86
2020/12/04 01:49:30;;;;;;;;;;;;;;;1.33;78.72;96835.02;1682629;84;26979;-86
2020/12/04 01:52:17;;;;;;;;;;;;;;;1.56;78.74;96847.39;1681831;84;25627;-86
2020/12/04 01:55:04;;;;;;;;;;;;;;;1.73;78.76;96834.78;1688345;84;20522;-86
2020/12/04 01:57:49;;;;;;;;;;;;;;;1.86;78.81;96834.39;1682870;84;25953;-85
2020/12/04 02:00:35;;;;;;;;;;;;;;;2.04;78.85;96833.73;1684478;84;22212;-85
2020/12/04 02:03:21;;;;;;;;;;;;;;;2.14;78.89;96845.14;1681716;84;26097;-86
2020/12/04 02:06:08;;;;;;;;;;;;;;;2.14;78.93;96839.16;1678611;84;24600;-86
2020/12/04 02:08:43;;;;;;;;;;;;;;;2.07;78.98;96823.25;1684814;84;20284;-86
2020/12/04 02:11:31;;;;;;;;;;;;;;;2.16;78.96;96820.09;1675967;84;25095;-86
2020/12/04 02:14:17;;;;;;;;;;;;;;;2.15;78.99;96821.46;1682815;84;22331;-86
2020/12/04 02:16:50;;;;;;;;;;;;;;;2.08;79.00;96810.23;1686843;84;26128;-87
2020/12/04 02:19:37;;;;;;;;;;;;;;;2.00;79.01;96811.18;1682303;84;24870;-86
2020/12/04 02:22:23;;;;;;;;;;;;;;;1.98;78.99;96807.86;1687655;84;20535;-86
2020/12/04 02:25:11;;;;;;;;;;;;;;;1.93;79.00;96807.31;1689081;84;25134;-86
2020/12/04 02:27:57;;;;;;;;;;;;;;;1.94;79.01;96801.23;1684311;84;22335;-86
2020/12/04 02:30:30;;;;;;;;;;;;;;;1.86;79.00;96802.16;1689489;84;26227;-86
2020/12/04 02:33:18;;;;;;;;;;;;;;;1.70;79.00;96792.41;1687031;84;24636;-86
2020/12/04 02:36:04;;;;;;;;;;;;;;;1.58;79.00;96796.55;1649681;86;20270;-86
2020/12/04 02:38:51;;;;;;;;;;;;;;;1.42;79.02;96785.99;1687090;84;25305;-86
2020/12/04 02:41:37;;;;;;;;;;;;;;;1.36;78.96;96783.32;1688554;84;22164;-86
2020/12/04 02:44:23;;;;;;;;;;;;;;;1.21;78.95;96772.16;1681020;84;26214;-86
2020/12/04 02:47:09;;;;;;;;;;;;;;;1.12;78.92;96770.13;1679765;84;24489;-86
2020/12/04 02:49:55;;;;;;;;;;;;;;;1.12;78.91;96778.31;1677606;84;20535;-86
2020/12/04 02:52:41;;;;;;;;;;;;;;;1.17;78.91;96788.72;1685391;84;25210;-86
2020/12/04 02:55:27;;;;;;;;;;;;;;;1.24;78.90;96793.89;1682608;84;22136;-85
2020/12/04 02:58:12;;;;;;;;;;;;;;;1.39;78.92;96784.41;1682399;84;26180;-85
2020/12/04 03:01:00;;;;;;;;;;;;;;;1.58;78.95;96784.15;1682443;84;24636;-86
2020/12/04 03:03:46;;;;;;;;;;;;;;;1.68;79.00;96780.09;1682563;84;20387;-85
2020/12/04 03:06:32;;;;;;;;;;;;;;;1.83;79.06;96785.59;1680316;84;25093;-85
2020/12/04 03:09:17;;;;;;;;;;;;;;;1.95;79.11;96781.44;1689962;84;23001;-85
2020/12/04 03:12:04;;;;;;;;;;;;;;;2.08;79.16;96784.89;1685353;84;26928;-85
2020/12/04 03:14:50;;;;;;;;;;;;;;;2.14;79.21;96783.22;1685031;84;24974;-85
2020/12/04 03:17:37;;;;;;;;;;;;;;;2.22;79.26;96770.67;1682258;84;20539;-85
2020/12/04 03:20:24;;;;;;;;;;;;;;;2.23;79.30;96766.34;1681911;84;25133;-86
2020/12/04 03:23:10;;;;;;;;;;;;;;;2.17;79.33;96752.54;1682494;84;22135;-86
2020/12/04 03:25:56;;;;;;;;;;;;;;;2.20;79.33;96758.32;1683881;84;26369;-86
2020/12/04 03:28:31;;;;;;;;;;;;;;;2.34;79.32;96754.42;1689260;84;24635;-86
2020/12/04 03:31:17;;;;;;;;;;;;;;;2.41;79.34;96759.53;1680400;84;20269;-87
2020/12/04 03:34:06;;;;;;;;;;;;;;;2.45;79.37;96763.59;1678532;84;25205;-86
2020/12/04 03:36:41;;;;;;;;;;;;;;;2.55;79.36;96763.83;1682378;84;23730;-87
2020/12/04 03:39:32;;;;;;;;;;;;;;;2.70;79.39;96758.95;1682126;84;26171;-86
2020/12/04 03:42:18;;;;;;;;;;;;;;;2.79;79.40;96755.75;1679832;84;24846;-86
2020/12/04 03:45:04;;;;;;;;;;;;;;;2.88;79.46;96753.87;1679882;84;20291;-86
2020/12/04 03:47:55;;;;;;;;;;;;;;;3.02;79.47;96758.58;1682537;84;25195;-86
2020/12/04 03:50:40;;;;;;;;;;;;;;;3.20;79.50;96754.78;1686814;84;22198;-86
2020/12/04 03:53:28;;;;;;;;;;;;;;;3.34;79.55;96754.20;1679602;84;25902;-86
2020/12/04 03:56:14;;;;;;;;;;;;;;;3.48;79.59;96758.91;1680261;84;25672;-86
2020/12/04 03:59:02;;;;;;;;;;;;;;;3.52;79.61;96750.00;1688110;84;20623;-85
2020/12/04 04:01:48;;;;;;;;;;;;;;;3.59;79.62;96753.37;1652771;84;25138;-86
2020/12/04 04:04:25;;;;;;;;;;;;;;;3.66;79.62;96751.16;1655713;86;22215;-86
2020/12/04 04:07:12;;;;;;;;;;;;;;;3.78;79.64;96755.03;1682648;84;26127;-86
2020/12/04 04:09:58;;;;;;;;;;;;;;;3.91;79.63;96764.06;1687549;84;23966;-86
2020/12/04 04:12:45;;;;;;;;;;;;;;;4.01;79.61;96760.36;1690925;84;20282;-86
2020/12/04 04:15:31;;;;;;;;;;;;;;;4.11;79.62;96761.36;1684819;84;25138;-86
2020/12/04 04:18:19;;;;;;;;;;;;;;;4.11;79.62;96766.07;1684630;84;22247;-86
2020/12/04 04:21:08;;;;;;;;;;;;;;;4.17;79.59;96749.28;1682097;84;27011;-86
2020/12/04 04:23:53;;;;;;;;;;;;;;;4.23;79.58;96755.78;1683504;84;24712;-86
2020/12/04 04:26:40;;;;;;;;;;;;;;;4.19;79.56;96752.59;1685696;84;20364;-86
2020/12/04 04:29:14;;;;;;;;;;;;;;;4.12;79.53;96745.73;1680790;84;25178;-86
2020/12/04 04:32:00;;;;;;;;;;;;;;;4.03;79.50;96747.69;1680262;84;22348;-86
2020/12/04 04:34:50;;;;;;;;;;;;;;;4.11;79.46;96740.66;1683267;84;27039;-87
2020/12/04 04:37:38;;;;;;;;;;;;;;;4.17;79.41;96738.45;1702987;83;24805;-87
2020/12/04 04:40:24;;;;;;;;;;;;;;;4.25;79.36;96739.69;1699883;83;20401;-87
2020/12/04 04:43:10;;;;;;;;;;;;;;;4.33;79.34;96745.95;1699428;83;26053;-87
2020/12/04 04:45:55;;;;;;;;;;;;;;;4.23;79.31;96724.25;1672342;85;22176;-86
2020/12/04 04:48:42;;;;;;;;;;;;;;;4.34;79.31;96738.55;1668548;85;27086;-87
2020/12/04 04:51:28;;;;;;;;;;;;;;;4.33;79.27;96735.59;1669404;85;24630;-87
2020/12/04 04:54:01;;;;;;;;;;;;;;;4.35;79.24;96744.55;1641298;86;20552;-87
2020/12/04 04:56:51;;;;;;;;;;;;;;;4.43;79.21;96749.53;1673726;85;25264;-86
2020/12/04 04:59:37;;;;;;;;;;;;;;;4.48;79.17;96748.72;1642943;86;22088;-87
2020/12/04 05:05:07;;;;;;;;;;;;;;;4.53;79.13;96745.33;1670177;85;24691;-87
2020/12/04 05:07:56;;;;;;;;;;;;;;;4.55;79.09;96752.53;1674338;85;20373;-87
2020/12/04 05:10:44;;;;;;;;;;;;;;;4.50;79.08;96763.70;1644359;85;25139;-87
2020/12/04 05:13:30;;;;;;;;;;;;;;;4.51;79.02;96758.05;1701744;83;22094;-87
2020/12/04 05:16:16;;;;;;;;;;;;;;;4.54;78.99;96762.53;1699237;83;26123;-88
2020/12/04 05:19:03;;;;;;;;;;;;;;;4.50;78.96;96754.63;1706020;83;24606;-88
2020/12/04 05:21:52;;;;;;;;;;;;;;;4.55;78.92;96755.13;1672682;84;20290;-88
2020/12/04 05:24:38;;;;;;;;;;;;;;;4.58;78.88;96758.77;1700032;83;25342;-88
2020/12/04 05:27:24;;;;;;;;;;;;;;;4.60;78.85;96752.20;1699423;83;22108;-88
2020/12/04 05:30:10;;;;;;;;;;;;;;;4.69;78.83;96755.89;1706084;83;25975;-87
2020/12/04 05:32:57;;;;;;;;;;;;;;;4.71;78.79;96750.94;1700578;83;23832;-88
2020/12/04 05:35:43;;;;;;;;;;;;;;;4.70;78.77;96757.52;1695307;84;20263;-87
2020/12/04 05:38:32;;;;;;;;;;;;;;;4.65;78.76;96756.57;1685784;83;25096;-87
2020/12/04 05:41:18;;;;;;;;;;;;;;;4.61;78.73;96758.57;1689169;83;22917;-88
2020/12/04 05:44:04;;;;;;;;;;;;;;;4.58;78.69;96757.48;1684988;83;26128;-88
2020/12/04 05:46:49;;;;;;;;;;;;;;;4.53;78.67;96756.16;1685252;83;24622;-88
2020/12/04 05:49:38;;;;;;;;;;;;;;;4.52;78.63;96745.47;1689138;83;20267;-88
2020/12/04 05:52:24;;;;;;;;;;;;;;;4.43;78.59;96728.81;1656980;85;25913;-87
2020/12/04 05:54:57;;;;;;;;;;;;;;;4.56;78.56;96739.12;1623909;86;22146;-87
2020/12/04 05:57:43;;;;;;;;;;;;;;;4.60;78.51;96743.12;1624991;87;26093;-87
2020/12/04 06:00:29;;;;;;;;;;;;;;;4.61;78.51;96749.50;1653046;85;24678;-86
2020/12/04 06:03:15;;;;;;;;;;;;;;;4.58;78.49;96744.52;1651928;85;20377;-86
2020/12/04 06:06:02;;;;;;;;;;;;;;;4.53;78.46;96743.20;1636432;86;25090;-86
2020/12/04 06:08:51;;;;;;;;;;;;;;;4.48;78.44;96739.66;1640289;86;22223;-86
2020/12/04 06:11:38;;;;;;;;;;;;;;;4.49;78.40;96740.02;1615027;87;26849;-87
2020/12/04 06:14:13;;;;;;;;;;;;;;;4.53;78.36;96744.50;1637039;86;24809;-88
2020/12/04 06:16:59;;;;;;;;;;;;;;;4.56;78.35;96739.12;1643046;86;20666;-87
2020/12/04 06:19:45;;;;;;;;;;;;;;;4.63;78.33;96746.34;1639894;86;25138;-87
2020/12/04 06:22:33;;;;;;;;;;;;;;;4.71;78.33;96747.05;1639382;86;22945;-87
2020/12/04 06:25:19;;;;;;;;;;;;;;;4.83;78.31;96746.16;1639338;86;26388;-87
2020/12/04 06:27:59;;;;;;;;;;;;;;;4.93;78.29;96750.19;1646176;86;24628;-87
2020/12/04 06:30:46;;;;;;;;;;;;;;;5.05;78.29;96745.39;1641346;86;20544;-88
2020/12/04 06:33:33;;;;;;;;;;;;;;;5.15;78.30;96758.02;1638897;86;25105;-87
2020/12/04 06:36:19;;;;;;;;;;;;;;;5.24;78.30;96763.80;1641862;85;22124;-87
2020/12/04 06:39:05;;;;;;;;;;;;;;;5.33;78.29;96749.34;1647024;85;26329;-87
2020/12/04 06:41:51;;;;;;;;;;;;;;;5.35;78.27;96739.18;1644590;85;24714;-87
2020/12/04 06:44:37;;;;;;;;;;;;;;;5.37;78.25;96739.08;1645569;85;20572;-87
2020/12/04 06:47:23;;;;;;;;;;;;;;;5.37;78.20;96725.64;1649413;85;25106;-87
2020/12/04 06:50:10;;;;;;;;;;;;;;;5.40;78.18;96736.27;1644950;85;21680;-88
2020/12/04 06:52:56;;;;;;;;;;;;;;;5.40;78.14;96729.78;1647350;85;27236;-87
2020/12/04 06:55:45;;;;;;;;;;;;;;;5.41;78.08;96745.20;1649600;85;25633;-86
2020/12/04 06:58:31;;;;;;;;;;;;;;;5.44;78.00;96751.47;1646684;85;20303;-86
2020/12/04 07:01:21;;;;;;;;;;;;;;;5.44;77.98;96755.36;1649371;85;25952;-86
2020/12/04 07:04:09;;;;;;;;;;;;;;;5.45;77.96;96748.41;1642960;85;22295;-86
2020/12/04 07:06:56;;;;;;;;;;;;;;;5.51;77.90;96742.72;1621105;85;25650;-87
2020/12/04 07:09:42;;;;;;;;;;;;;;;5.55;77.86;96741.57;1661560;84;24646;-87
2020/12/04 07:12:28;;;;;;;;;;;;;;;5.56;77.83;96731.55;1632422;86;20524;-86
2020/12/04 07:15:15;;;;;;;;;;;;;;;5.58;77.79;96734.01;1665368;85;25098;-87
2020/12/04 07:18:00;;;;;;;;;;;;;;;5.65;77.72;96732.13;1639010;87;22357;-86
2020/12/04 07:20:47;;;;;;;;;;;;;;;5.73;77.68;96724.56;1660015;85;26160;-86
2020/12/04 07:23:33;;;;;;;;;;;;;;;5.80;77.64;96732.70;1656585;85;24647;-86
2020/12/04 07:26:19;;;;;;;;;;;;;;;5.83;77.58;96737.20;1686238;83;20254;-86
2020/12/04 07:29:05;;;;;;;;;;;;;;;5.85;77.55;96727.50;1690354;83;25263;-86
2020/12/04 07:31:52;;;;;;;;;;;;;;;5.88;77.48;96731.67;1693549;83;23031;-86
2020/12/04 07:34:38;;;;;;;;;;;;;;;5.92;77.45;96721.40;1693454;83;26198;-87
2020/12/04 07:37:27;;;;;;;;;;;;;;;5.95;77.38;96732.00;1700903;82;24703;-86
2020/12/04 07:40:12;;;;;;;;;;;;;;;5.98;77.32;96733.91;1706378;82;20277;-86
2020/12/04 07:43:03;;;;;;;;;;;;;;;6.03;77.29;96727.88;1709371;82;26006;-87
2020/12/04 07:45:48;;;;;;;;;;;;;;;6.07;77.22;96724.55;1716499;82;22199;-86
2020/12/04 07:48:36;;;;;;;;;;;;;;;6.10;77.17;96723.86;1689935;82;25835;-86
2020/12/04 07:51:21;;;;;;;;;;;;;;;6.12;77.09;96705.06;1705408;82;24673;-86
2020/12/04 07:54:08;;;;;;;;;;;;;;;6.17;77.03;96726.30;1717056;82;20279;-86
2020/12/04 07:56:54;;;;;;;;;;;;;;;6.21;76.98;96726.42;1706475;82;25924;-86
2020/12/04 07:59:40;;;;;;;;;;;;;;;6.25;76.92;96710.11;1675086;84;23054;-86
2020/12/04 08:02:26;;;;;;;;;;;;;;;6.28;76.85;96717.17;1675237;84;25874;-86
2020/12/04 08:05:12;;;;;;;;;;;;;;;6.34;76.79;96716.33;1676233;84;24585;-86
2020/12/04 08:07:59;;;;;;;;;;;;;;;6.39;76.72;96712.89;1679497;84;20369;-86
2020/12/04 08:10:45;;;;;;;;;;;;;;;6.41;76.66;96712.30;1677824;84;25100;-87
2020/12/04 08:13:36;;;;;;;;;;;;;;;6.41;76.63;96696.23;1683924;84;22039;-87
2020/12/04 08:16:22;;;;;;;;;;;;;;;6.51;76.57;96683.31;1645492;86;26123;-87
2020/12/04 08:19:14;;;;;;;;;;;;;;;6.51;76.51;96672.45;1682207;84;25532;-87
2020/12/04 08:22:01;;;;;;;;;;;;;;;6.58;76.46;96690.97;1674515;84;20355;-87
2020/12/04 08:24:48;;;;;;;;;;;;;;;6.62;76.38;96667.67;1675313;84;25146;-87
2020/12/04 08:27:34;;;;;;;;;;;;;;;6.65;76.31;96668.27;1674950;84;23047;-87
2020/12/04 08:30:21;;;;;;;;;;;;;;;6.69;76.22;96655.83;1682253;84;26222;-87
2020/12/04 08:33:07;;;;;;;;;;;;;;;6.72;76.14;96655.09;1677288;84;24610;-87
2020/12/04 08:35:53;;;;;;;;;;;;;;;6.77;76.06;96665.11;1685366;84;20266;-88
2020/12/04 08:38:39;;;;;;;;;;;;;;;6.82;76.01;96668.15;1682353;84;25128;-87
2020/12/04 08:41:25;;;;;;;;;;;;;;;6.81;75.93;96661.80;1682531;84;22147;-87
2020/12/04 08:44:10;;;;;;;;;;;;;;;6.78;75.85;96663.33;1680827;84;26956;-87
2020/12/04 08:46:57;;;;;;;;;;;;;;;6.78;75.73;96669.83;1684629;84;24690;-87
2020/12/04 08:49:43;;;;;;;;;;;;;;;6.78;75.63;96663.33;1685476;84;20512;-86
2020/12/04 08:52:29;;;;;;;;;;;;;;;6.81;75.54;96674.80;1694148;84;25196;-87
2020/12/04 08:55:15;;;;;;;;;;;;;;;6.81;75.46;96662.63;1687558;84;22172;-87
2020/12/04 08:58:01;;;;;;;;;;;;;;;6.82;75.39;96647.34;1680226;84;26186;-86
2020/12/04 09:00:47;;;;;;;;;;;;;;;6.85;75.32;96660.11;1675821;84;25482;-86
2020/12/04 09:03:36;;;;;;;;;;;;;;;6.91;75.24;96663.97;1674063;84;20362;-86
2020/12/04 09:06:26;;;;;;;;;;;;;;;6.98;75.13;96658.12;1682166;84;25130;-87
2020/12/04 09:09:15;;;;;;;;;;;;;;;7.06;75.05;96664.81;1691139;84;22236;-86
2020/12/04 09:12:01;;;;;;;;;;;;;;;7.16;74.96;96671.36;1685266;84;26273;-86
2020/12/04 09:14:47;;;;;;;;;;;;;;;7.22;74.88;96681.25;1684264;84;25461;-87
2020/12/04 09:17:35;;;;;;;;;;;;;;;7.26;74.78;96644.91;1682029;84;20530;-85
2020/12/04 09:20:22;;;;;;;;;;;;;;;7.28;74.71;96653.42;1682420;84;25148;-86
2020/12/04 09:23:09;;;;;;;;;;;;;;;7.32;74.60;96643.56;1683771;84;23052;-86
2020/12/04 09:25:56;;;;;;;;;;;;;;;7.36;74.45;96667.09;1681053;84;26390;-86
2020/12/04 09:28:42;;;;;;;;;;;;;;;7.39;74.32;96665.04;1680701;84;24517;-86
2020/12/04 09:31:15;;;;;;;;;;;;;;;7.41;74.23;96676.63;1674671;84;20439;-87
2020/12/04 09:34:08;;;;;;;;;;;;;;;7.42;74.10;96651.75;1680818;84;26038;-85
2020/12/04 09:36:54;;;;;;;;;;;;;;;7.44;74.00;96646.42;1696061;84;22083;-85
2020/12/04 09:39:40;;;;;;;;;;;;;;;7.47;73.86;96641.77;1682972;84;26949;-85
2020/12/04 09:42:26;;;;;;;;;;;;;;;7.51;73.77;96641.05;1680363;84;25537;-85
2020/12/04 09:45:12;;;;;;;;;;;;;;;7.52;73.67;96632.29;1674224;84;20218;-85
2020/12/04 09:47:58;;;;;;;;;;;;;;;7.56;73.59;96641.47;1687001;84;25181;-84
2020/12/04 09:50:44;;;;;;;;;;;;;;;7.61;73.47;96637.17;1680416;84;22400;-84
2020/12/04 09:53:30;;;;;;;;;;;;;;;7.67;73.35;96647.05;1678964;84;26097;-85
2020/12/04 09:56:17;;;;;;;;;;;;;;;7.73;73.23;96661.67;1681477;84;24594;-85
2020/12/04 09:59:03;;;;;;;;;;;;;;;7.80;73.12;96656.77;1678737;83;20472;-86
2020/12/04 10:01:50;;;;;;;;;;;;;;;7.89;73.02;96667.67;1675743;84;25178;-85
2020/12/04 10:04:38;;;;;;;;;;;;;;;7.95;72.94;96648.91;1661677;84;22164;-86
2020/12/04 10:07:25;;;;;;;;;;;;;;;8.05;72.86;96625.47;1636757;86;26115;-86
2020/12/04 10:10:11;;;;;;;;;;;;;;;8.12;72.79;96605.27;1645166;86;25545;-86
2020/12/04 10:12:57;;;;;;;;;;;;;;;8.18;72.68;96600.78;1611182;87;20382;-85
2020/12/04 10:15:43;;;;;;;;;;;;;;;8.27;72.55;96600.45;1640608;86;25259;-86
2020/12/04 10:18:30;;;;;;;;;;;;;;;8.36;72.45;96600.95;1643919;86;22380;-86
2020/12/04 10:21:18;;;;;;;;;;;;;;;8.44;72.35;96591.97;1632745;87;27179;-86
2020/12/04 10:24:04;;;;;;;;;;;;;;;8.53;72.25;96588.52;1633536;87;24759;-86
2020/12/04 10:26:53;;;;;;;;;;;;;;;8.61;72.08;96578.23;1629641;86;21592;-86
2020/12/04 10:29:39;;;;;;;;;;;;;;;8.70;71.93;96571.34;1648187;86;25959;-86
2020/12/04 10:32:24;;;;;;;;;;;;;;;8.75;71.78;96599.94;1661145;84;22138;-87
2020/12/04 10:35:11;;;;;;;;;;;;;;;8.80;71.62;96600.34;1638565;86;26213;-87
2020/12/04 10:37:57;;;;;;;;;;;;;;;8.87;71.42;96608.42;1658373;85;24778;-87
2020/12/04 10:40:43;;;;;;;;;;;;;;;8.93;71.27;96579.17;1679290;84;20276;-86
2020/12/04 10:43:16;;;;;;;;;;;;;;;8.98;71.09;96606.13;1670095;84;26140;-87
2020/12/04 10:46:04;;;;;;;;;;;;;;;9.01;70.96;96619.70;1646578;86;23149;-87
2020/12/04 10:48:50;;;;;;;;;;;;;;;9.07;70.84;96625.66;1644756;86;26160;-86
2020/12/04 10:51:36;;;;;;;;;;;;;;;9.13;70.75;96622.48;1648789;86;24640;-86
2020/12/04 10:54:23;;;;;;;;;;;;;;;9.22;70.68;96622.92;1689106;83;20285;-86
2020/12/04 10:57:08;;;;;;;;;;;;;;;9.27;70.59;96623.00;1682158;84;25518;-86
2020/12/04 10:59:57;;;;;;;;;;;;;;;9.29;70.47;96629.70;1678254;84;22187;-86
2020/12/04 11:02:44;;;;;;;;;;;;;;;9.30;70.33;96605.73;1672845;84;26247;-87
2020/12/04 11:05:39;;;;;;;;;;;;;;;9.28;70.20;96603.27;1682964;84;24637;-86
2020/12/04 11:08:25;;;;;;;;;;;;;;;9.29;70.04;96620.58;1631259;86;20283;-86
2020/12/04 11:11:11;;;;;;;;;;;;;;;9.31;69.93;96647.84;1688139;83;25394;-86
2020/12/04 11:13:59;;;;;;;;;;;;;;;9.31;69.81;96648.67;1679054;84;22162;-86
2020/12/04 11:16:46;;;;;;;;;;;;;;;9.32;69.62;96639.05;1673997;84;27490;-86
2020/12/04 11:19:32;;;;;;;;;;;;;;;9.29;69.48;96641.94;1681552;84;24663;-86
2020/12/04 11:22:17;;;;;;;;;;;;;;;9.34;69.28;96625.36;1681521;84;20354;-86
2020/12/04 11:25:04;;;;;;;;;;;;;;;9.36;69.16;96628.66;1682842;84;25135;-86
2020/12/04 11:27:50;;;;;;;;;;;;;;;9.40;69.03;96610.43;1686147;84;22135;-86
2020/12/04 11:30:40;;;;;;;;;;;;;;;9.42;68.90;96592.36;1679054;84;27080;-87
2020/12/04 11:33:25;;;;;;;;;;;;;;;9.43;68.75;96630.56;1677204;84;24932;-85
2020/12/04 11:36:11;;;;;;;;;;;;;;;9.44;68.60;96626.96;1674981;84;20299;-86
2020/12/04 11:38:58;;;;;;;;;;;;;;;9.41;68.45;96610.30;1681657;83;25337;-86
2020/12/04 11:41:47;;;;;;;;;;;;;;;9.37;68.34;96605.52;1682685;84;23102;-86
2020/12/04 11:44:32;;;;;;;;;;;;;;;9.33;68.22;96634.97;1684307;83;27112;-85
2020/12/04 11:47:19;;;;;;;;;;;;;;;9.32;68.11;96634.66;1679761;84;24756;-85
2020/12/04 11:50:05;;;;;;;;;;;;;;;9.32;67.98;96648.20;1681702;84;20665;-85
2020/12/04 11:52:51;;;;;;;;;;;;;;;9.30;67.87;96649.63;1685545;84;25140;-85
2020/12/04 11:55:37;;;;;;;;;;;;;;;9.28;67.77;96669.82;1688838;84;22172;-85
2020/12/04 11:58:23;;;;;;;;;;;;;;;9.26;67.68;96657.41;1679338;84;27074;-85
2020/12/04 12:01:10;;;;;;;;;;;;;;;9.24;67.63;96662.77;1684498;84;24699;-86
2020/12/04 12:03:57;;;;;;;;;;;;;;;9.25;67.53;96667.51;1680927;84;20449;-85
2020/12/04 12:06:44;;;;;;;;;;;;;;;9.22;67.46;96669.91;1684273;84;25486;-85
2020/12/04 12:09:30;;;;;;;;;;;;;;;9.23;67.38;96690.31;1685108;84;22105;-85
2020/12/04 12:12:16;;;;;;;;;;;;;;;9.22;67.29;96682.95;1682913;83;26137;-85
2020/12/04 12:15:04;;;;;;;;;;;;;;;9.23;67.15;96681.17;1680004;84;24639;-86
2020/12/04 12:17:52;;;;;;;;;;;;;;;9.24;67.11;96676.30;1678982;84;20582;-86
2020/12/04 12:20:37;;;;;;;;;;;;;;;9.27;67.07;96689.08;1679983;84;25162;-86
2020/12/04 12:23:23;;;;;;;;;;;;;;;9.31;67.01;96671.34;1679747;84;22183;-86
2020/12/04 12:26:09;;;;;;;;;;;;;;;9.39;66.95;96668.34;1679578;84;26170;-86
2020/12/04 12:28:55;;;;;;;;;;;;;;;9.45;66.89;96665.16;1679945;84;24640;-86
2020/12/04 12:31:41;;;;;;;;;;;;;;;9.46;66.86;96660.29;1680312;85;20353;-86
2020/12/04 12:37:32;;;;;;;;;;;;;;;9.54;66.72;96642.61;1679386;84;23048;-86
2020/12/04 12:40:22;;;;;;;;;;;;;;;9.49;66.59;96654.77;1674027;84;26394;-86
2020/12/04 12:43:07;;;;;;;;;;;;;;;9.50;66.51;96668.16;1649817;86;24612;-86
2020/12/04 12:45:54;;;;;;;;;;;;;;;9.47;66.48;96673.69;1660428;86;20371;-86
2020/12/04 12:48:40;;;;;;;;;;;;;;;9.44;66.41;96676.57;1682811;84;25144;-86
2020/12/04 12:51:26;;;;;;;;;;;;;;;9.42;66.32;96671.99;1688711;84;22401;-86
2020/12/04 12:54:12;;;;;;;;;;;;;;;9.42;66.25;96668.08;1664751;85;26252;-86
2020/12/04 12:56:58;;;;;;;;;;;;;;;9.43;66.17;96652.75;1682071;84;24630;-87
2020/12/04 12:59:44;;;;;;;;;;;;;;;9.36;66.09;96647.76;1684075;84;20306;-86
2020/12/04 13:02:33;;;;;;;;;;;;;;;9.32;66.00;96625.52;1679829;84;25182;-86
2020/12/04 13:05:38;;;;;;;;;;;;;;;9.25;65.93;96624.45;1681494;84;22177;-86
2020/12/04 13:08:24;;;;;;;;;;;;;;;9.20;65.79;96635.31;1686136;82;26063;-87
2020/12/04 13:11:11;;;;;;;;;;;;;;;9.17;65.71;96623.84;1680219;84;24724;-86
2020/12/04 13:13:57;;;;;;;;;;;;;;;9.17;65.65;96632.15;1686263;84;20643;-86
2020/12/04 13:16:42;;;;;;;;;;;;;;;9.14;65.61;96609.78;1681165;84;25124;-87
2020/12/04 13:19:29;;;;;;;;;;;;;;;9.12;65.55;96634.37;1683662;84;23028;-86
2020/12/04 13:22:15;;;;;;;;;;;;;;;9.14;65.51;96641.58;1669623;84;27211;-87
2020/12/04 13:25:01;;;;;;;;;;;;;;;9.17;65.46;96638.67;1666091;84;24640;-86
2020/12/04 13:27:48;;;;;;;;;;;;;;;9.14;65.42;96654.63;1672296;84;20561;-87
2020/12/04 13:30:34;;;;;;;;;;;;;;;9.15;65.37;96682.38;1683890;84;25119;-87
2020/12/04 13:33:20;;;;;;;;;;;;;;;9.15;65.33;96700.64;1648469;86;22087;-86
2020/12/04 13:36:05;;;;;;;;;;;;;;;9.16;65.33;96706.21;1679478;84;26199;-85
2020/12/04 13:38:52;;;;;;;;;;;;;;;9.16;65.27;96704.91;1687514;84;24671;-86
2020/12/04 13:41:38;;;;;;;;;;;;;;;9.13;65.19;96718.22;1684626;84;20268;-86
2020/12/04 13:44:24;;;;;;;;;;;;;;;9.09;65.20;96736.43;1682556;84;26130;-86
2020/12/04 13:47:10;;;;;;;;;;;;;;;9.05;65.18;96735.89;1682442;84;22116;-86
2020/12/04 13:49:56;;;;;;;;;;;;;;;9.02;65.13;96734.85;1684904;83;26145;-86
2020/12/04 13:52:42;;;;;;;;;;;;;;;9.00;65.12;96732.05;1681691;84;24580;-85
2020/12/04 13:55:28;;;;;;;;;;;;;;;8.97;65.11;96729.70;1673570;84;20297;-86
2020/12/04 13:58:16;;;;;;;;;;;;;;;8.97;65.09;96729.70;1684150;84;25372;-85
2020/12/04 14:01:02;;;;;;;;;;;;;;;8.96;65.07;96746.31;1689434;83;22121;-85
2020/12/04 14:03:49;;;;;;;;;;;;;;;8.94;65.08;96750.87;1676681;84;26126;-85
2020/12/04 14:06:35;;;;;;;;;;;;;;;8.93;65.09;96750.52;1684179;84;25454;-86
2020/12/04 14:09:22;;;;;;;;;;;;;;;8.92;65.10;96753.61;1682795;84;20605;-86
2020/12/04 14:12:08;;;;;;;;;;;;;;;8.91;65.09;96767.61;1682207;84;25199;-85
2020/12/04 14:14:55;;;;;;;;;;;;;;;8.88;65.11;96760.55;1683886;84;23251;-85
2020/12/04 14:17:41;;;;;;;;;;;;;;;8.84;65.11;96761.28;1680026;84;26548;-85
2020/12/04 14:20:27;;;;;;;;;;;;;;;8.78;65.13;96760.55;1681972;84;24840;-85
2020/12/04 14:23:13;;;;;;;;;;;;;;;8.74;65.10;96754.77;1687195;83;20458;-86
2020/12/04 14:25:59;;;;;;;;;;;;;;;8.74;65.10;96757.85;1680675;84;26048;-86
2020/12/04 14:28:45;;;;;;;;;;;;;;;8.71;65.11;96755.53;1684316;84;22168;-86
2020/12/04 14:31:31;;;;;;;;;;;;;;;8.64;65.10;96742.20;1685240;82;26129;-86
2020/12/04 14:34:19;;;;;;;;;;;;;;;8.58;65.09;96746.66;1682545;84;24592;-86
2020/12/04 14:37:04;;;;;;;;;;;;;;;8.54;65.06;96758.33;1681107;84;20264;-86
2020/12/04 14:39:50;;;;;;;;;;;;;;;8.49;65.05;96757.09;1681023;84;26007;-87
2020/12/04 14:42:37;;;;;;;;;;;;;;;8.47;65.07;96761.13;1689762;83;22141;-88